Stations météo

Publicité
Durham, Grande-Bretagne (99049): Température de l'air & dewpoint: 13.09.2020 09:00:00 - 19.09.2020 09:00:00 (BST)Durham, Grande-Bretagne (99049): Température de l'air -20cm & Température de l'air -100cm: 13.09.2020 09:00:00 - 19.09.2020 09:00:00 (BST)Durham, Grande-Bretagne (99049): Quantités de précipitations: 13.09.2020 09:00:00 - 19.09.2020 09:00:00 (BST)
Date & Time tt [°C] td [°C] tt -20cm [°C] tt -100cm [°C] rr [mm]
19.09.2020 09:00:00 12,4 9,4 - - 0,0
19.09.2020 08:00:00 11,0 8,5 - - 0,0
19.09.2020 07:00:00 10,6 8,4 - - 0,0
19.09.2020 06:00:00 10,7 8,6 - - 0,0
19.09.2020 05:00:00 10,8 8,8 - - 0,0
19.09.2020 04:00:00 10,9 8,3 - - 0,0
19.09.2020 03:00:00 11,1 9,1 - - 0,0
19.09.2020 02:00:00 11,2 8,9 - - 0,0
19.09.2020 01:00:00 11,5 8,9 - - 0,0
19.09.2020 00:00:00 11,7 8,7 - - 0,0
18.09.2020 23:00:00 12,1 8,9 - - 0,0
18.09.2020 22:00:00 12,0 9,9 - - -
18.09.2020 21:00:00 11,4 10,0 - - 0,0
18.09.2020 20:00:00 11,1 8,9 - - 0,0
18.09.2020 19:00:00 12,6 9,0 - - 0,0
18.09.2020 18:00:00 14,0 9,1 - - 0,0
18.09.2020 17:00:00 14,5 9,2 - - 0,0
18.09.2020 16:00:00 15,9 9,0 - - 0,0
18.09.2020 15:00:00 15,1 9,2 - - 0,0
18.09.2020 14:00:00 17,1 10,0 - - 0,0
18.09.2020 13:00:00 16,1 9,5 - - 0,0
18.09.2020 12:00:00 15,3 11,1 - - 0,0
18.09.2020 11:00:00 14,0 11,4 - - 0,0
18.09.2020 10:00:00 9,9 9,9 15,7 14,9 0,0
18.09.2020 09:00:00 6,6 6,6 - - 0,0
18.09.2020 08:00:00 5,9 5,8 - - 0,0
18.09.2020 07:00:00 6,5 6,4 - - 0,0
18.09.2020 06:00:00 6,9 6,7 - - 0,0
18.09.2020 05:00:00 7,8 7,6 - - 0,2
18.09.2020 04:00:00 8,4 8,3 - - 0,0
18.09.2020 03:00:00 6,8 6,4 - - -
18.09.2020 02:00:00 7,9 7,5 - - 0,0
18.09.2020 01:00:00 8,5 7,9 - - 0,0
18.09.2020 00:00:00 9,3 8,6 - - 0,0
17.09.2020 23:00:00 10,6 9,5 - - 0,0
17.09.2020 22:00:00 11,0 10,0 - - 0,0
17.09.2020 21:00:00 10,7 10,0 - - 0,0
17.09.2020 20:00:00 11,0 9,4 - - 0,0
17.09.2020 19:00:00 12,7 9,9 - - 0,0
17.09.2020 18:00:00 14,7 10,0 - - -
17.09.2020 17:00:00 16,5 10,6 - - -
17.09.2020 16:00:00 18,2 10,4 - - 0,0
17.09.2020 15:00:00 18,0 8,6 - - 0,0
17.09.2020 14:00:00 17,5 9,3 - - 0,0
17.09.2020 13:00:00 17,3 9,7 - - 0,0
17.09.2020 12:00:00 15,3 9,1 - - 0,0
17.09.2020 11:00:00 14,7 9,7 - - 0,0
17.09.2020 10:00:00 13,1 9,3 15,7 14,7 0,0
17.09.2020 09:00:00 10,3 8,7 - - 0,0
17.09.2020 08:00:00 8,1 7,6 - - 0,0
17.09.2020 07:00:00 7,9 6,8 - - 0,0
17.09.2020 06:00:00 9,1 7,3 - - 0,0
17.09.2020 05:00:00 9,8 7,5 - - 0,0
17.09.2020 04:00:00 10,5 7,7 - - 0,0
17.09.2020 03:00:00 10,7 8,4 - - 0,0
17.09.2020 02:00:00 10,9 8,5 - - 0,0
17.09.2020 01:00:00 11,0 8,5 - - 0,0
17.09.2020 00:00:00 11,1 9,0 - - 0,0
16.09.2020 23:00:00 11,1 9,1 - - 0,0
16.09.2020 22:00:00 11,3 9,1 - - 0,0
16.09.2020 21:00:00 11,4 9,4 - - 0,0
16.09.2020 20:00:00 11,3 9,1 - - 0,0
16.09.2020 19:00:00 12,2 9,2 - - 0,0
16.09.2020 18:00:00 13,1 9,8 - - 0,0
16.09.2020 17:00:00 13,9 9,9 - - 0,0
16.09.2020 16:00:00 13,6 10,0 - - 0,0
16.09.2020 15:00:00 13,9 10,4 - - 0,0
16.09.2020 14:00:00 13,8 10,3 - - 0,0
16.09.2020 13:00:00 13,3 10,9 - - 0,0
16.09.2020 12:00:00 13,3 11,0 - - 0,0
16.09.2020 11:00:00 13,7 11,5 - - 0,0
16.09.2020 10:00:00 13,2 11,5 16,2 14,7 0,0
16.09.2020 09:00:00 12,8 11,2 - - 0,0
16.09.2020 08:00:00 12,7 11,3 - - 0,0
16.09.2020 07:00:00 13,1 11,5 - - 0,0
16.09.2020 06:00:00 13,5 11,8 - - 0,0
16.09.2020 05:00:00 13,8 12,1 - - 0,0
16.09.2020 04:00:00 14,8 13,0 - - 0,0
16.09.2020 03:00:00 15,2 13,9 - - 0,0
16.09.2020 02:00:00 15,6 14,3 - - 0,0
16.09.2020 01:00:00 16,5 15,1 - - 0,0
16.09.2020 00:00:00 17,2 15,2 - - 0,0
15.09.2020 23:00:00 18,2 15,7 - - 0,0
15.09.2020 22:00:00 19,2 15,0 - - 0,2
15.09.2020 21:00:00 20,9 15,5 - - 0,0
15.09.2020 20:00:00 21,5 14,8 - - 0,0
15.09.2020 19:00:00 22,1 15,1 - - 0,0
15.09.2020 18:00:00 23,5 15,1 - - -
15.09.2020 17:00:00 24,1 13,9 - - 0,0
15.09.2020 16:00:00 26,0 12,8 - - 0,0
15.09.2020 15:00:00 26,2 13,6 - - 0,0
15.09.2020 14:00:00 24,9 13,9 - - 0,0
15.09.2020 13:00:00 24,1 15,1 - - 0,0
15.09.2020 12:00:00 22,7 15,5 - - 0,0
15.09.2020 11:00:00 20,9 15,7 - - 0,0
15.09.2020 10:00:00 18,6 14,5 15,7 14,7 0,0
15.09.2020 09:00:00 14,9 12,7 - - 0,0
15.09.2020 08:00:00 12,9 11,9 - - 0,0
15.09.2020 07:00:00 12,4 11,7 - - 0,0
15.09.2020 06:00:00 12,3 11,9 - - 0,0
15.09.2020 05:00:00 12,1 11,8 - - 0,0
15.09.2020 04:00:00 12,7 12,4 - - 0,0
15.09.2020 03:00:00 12,5 12,0 - - 0,0
15.09.2020 02:00:00 13,3 12,7 - - 0,0
15.09.2020 01:00:00 14,3 13,5 - - 0,0
15.09.2020 00:00:00 15,0 13,7 - - 0,0
14.09.2020 23:00:00 15,7 14,1 - - 0,0
14.09.2020 22:00:00 15,8 13,4 - - 0,0
14.09.2020 21:00:00 16,8 13,7 - - 0,0
14.09.2020 20:00:00 18,3 13,6 - - 0,0
14.09.2020 19:00:00 20,4 14,6 - - 0,0
14.09.2020 18:00:00 22,2 15,0 - - 0,0
14.09.2020 17:00:00 22,8 15,1 - - 0,0
14.09.2020 16:00:00 23,9 14,2 - - 0,0
14.09.2020 15:00:00 23,3 14,5 - - 0,0
14.09.2020 14:00:00 22,6 14,6 - - 0,0
14.09.2020 13:00:00 21,0 13,0 - - 0,0
14.09.2020 12:00:00 20,0 13,2 - - 0,0
14.09.2020 11:00:00 19,8 14,9 - - 0,0
14.09.2020 10:00:00 17,6 13,0 15,0 14,5 0,0
14.09.2020 09:00:00 15,3 12,8 - - 0,0
14.09.2020 08:00:00 13,5 11,7 - - 0,0
14.09.2020 07:00:00 13,0 11,5 - - 0,0
14.09.2020 06:00:00 12,3 10,4 - - 0,0
14.09.2020 05:00:00 13,0 11,1 - - 0,0
14.09.2020 04:00:00 12,9 10,7 - - -
14.09.2020 03:00:00 14,5 11,8 - - 0,0
14.09.2020 02:00:00 13,7 11,3 - - 0,0
14.09.2020 01:00:00 15,0 12,1 - - 0,0
14.09.2020 00:00:00 15,0 12,1 - - 0,0
13.09.2020 23:00:00 15,1 12,1 - - 0,0
13.09.2020 22:00:00 15,9 12,0 - - 0,0
13.09.2020 21:00:00 15,8 12,0 - - 0,0
13.09.2020 20:00:00 16,1 12,1 - - 0,0
13.09.2020 19:00:00 16,5 12,9 - - 0,0
13.09.2020 18:00:00 17,4 13,2 - - 0,0
13.09.2020 17:00:00 18,6 12,8 - - 0,0
13.09.2020 16:00:00 19,0 12,8 - - 0,0
13.09.2020 15:00:00 19,5 12,9 - - 0,0
13.09.2020 14:00:00 19,3 13,1 - - 0,0
13.09.2020 13:00:00 19,2 13,3 - - 0,0
13.09.2020 12:00:00 18,5 13,2 - - 0,0
13.09.2020 11:00:00 17,3 13,1 - - 0,0
13.09.2020 10:00:00 17,0 12,9 14,7 14,7 0,0
13.09.2020 09:00:00 16,7 12,9 - - 0,0

tt = Température de l'air
td = dewpoint
tt -20cm = Température de l'air -20cm
tt -100cm = Température de l'air -100cm
rr = Quantités de précipitations

stations d'obs. à proximité